Time;durP1;ratioP1;P1;durP2;ratioP2;P2;SDS_P1;SDS_P2;PMS_P1;PMS_P2;Temp;Humidity;BMP_temperature;BMP_pressure;BME280_temperature;BME280_humidity;BME280_pressure;Samples;Min_cycle;Max_cycle;Signal;HPM_P1;HPM_P2
2022/09/11 00:01:39;;;;;;;11.87;10.27;;;19.00;80.10;;;21.80;58.52;101517.25;5030149;28;20226;-59
2022/09/11 00:04:09;;;;;;;11.40;10.20;;;19.00;80.40;;;21.84;58.15;101524.63;5031106;28;20198;-57
2022/09/11 00:06:37;;;;;;;11.80;10.70;;;19.00;80.60;;;21.89;58.36;101521.25;5031273;28;20636;-59
2022/09/11 00:09:06;;;;;;;14.37;12.97;;;19.10;80.80;;;21.96;58.05;101513.94;5048323;28;20190;-59
2022/09/11 00:11:39;;;;;;;13.23;11.97;;;19.10;80.50;;;22.01;58.25;101519.44;5050365;28;20835;-59
2022/09/11 00:14:09;;;;;;;12.33;11.13;;;19.20;80.40;;;22.03;57.84;101515.47;5050442;28;20686;-59
2022/09/11 00:16:40;;;;;;;12.47;11.33;;;19.20;80.00;;;22.01;57.63;101519.44;5048860;28;20190;-58
2022/09/11 00:19:11;;;;;;;12.00;10.90;;;19.20;79.50;;;21.96;57.17;101516.63;5050973;28;20198;-59
2022/09/11 00:21:39;;;;;;;11.30;10.27;;;19.20;79.40;;;21.92;57.91;101515.41;5050019;28;20550;-60
2022/09/11 00:24:08;;;;;;;13.23;11.83;;;19.20;79.80;;;21.92;57.77;101512.75;5047160;28;20243;-58
2022/09/11 00:26:37;;;;;;;10.97;9.87;;;19.20;79.70;;;21.91;58.06;101513.81;5049496;28;20273;-58
2022/09/11 00:29:04;;;;;;;12.47;11.23;;;19.10;79.90;;;21.89;58.17;101521.25;5050395;28;20220;-59
2022/09/11 00:31:31;;;;;;;11.13;10.13;;;19.10;80.10;;;21.91;58.24;101519.16;5047895;28;20650;-58
2022/09/11 00:33:59;;;;;;;13.53;12.23;;;19.20;80.30;;;21.92;58.02;101520.78;5049685;28;20232;-60
2022/09/11 00:36:34;;;;;;;13.77;12.57;;;19.20;79.90;;;21.87;57.82;101513.44;5050101;28;20197;-57
2022/09/11 00:39:02;;;;;;;12.30;11.03;;;19.20;79.60;;;21.82;57.76;101518.63;5050272;28;20169;-59
2022/09/11 00:41:34;;;;;;;11.37;10.23;;;19.10;79.30;;;21.77;57.40;101528.41;5048288;28;20283;-59
2022/09/11 00:44:05;;;;;;;13.47;12.17;;;19.10;79.40;;;21.69;58.04;101529.56;5050406;28;20256;-60
2022/09/11 00:46:39;;;;;;;13.10;11.90;;;19.00;79.20;;;21.61;57.47;101523.72;5050324;28;20193;-59
2022/09/11 00:49:21;;;;;;;12.70;11.40;;;19.00;79.40;;;21.52;58.13;101523.19;5048435;28;20184;-59
2022/09/11 00:51:56;;;;;;;12.13;10.93;;;18.90;79.50;;;21.49;58.10;101521.78;5049534;28;20267;-56
2022/09/11 00:54:36;;;;;;;13.20;11.87;;;18.80;79.80;;;21.48;58.28;101530.06;5050034;28;20642;-58
2022/09/11 00:57:07;;;;;;;14.03;12.80;;;18.80;80.00;;;21.48;57.99;101530.06;5050147;28;20228;-58
2022/09/11 00:59:39;;;;;;;13.73;12.33;;;18.80;80.00;;;21.48;57.71;101541.59;5049719;28;20190;-58
2022/09/11 01:02:12;;;;;;;14.43;13.03;;;18.70;79.90;;;21.45;58.42;101542.03;5050114;28;20224;-59
2022/09/11 01:04:40;;;;;;;13.80;12.57;;;18.70;80.40;;;21.48;58.27;101541.59;5039274;28;20233;-59
2022/09/11 01:07:12;;;;;;;13.20;11.90;;;18.70;80.70;;;21.49;58.59;101548.56;5030515;28;20217;-55
2022/09/11 01:09:41;;;;;;;13.00;11.67;;;18.70;80.70;;;21.52;58.55;101545.47;5030538;28;20202;-57
2022/09/11 01:12:22;;;;;;;12.37;11.17;;;18.70;80.70;;;21.50;58.52;101542.19;5030045;28;20362;-58
2022/09/11 01:15:00;;;;;;;13.60;12.30;;;18.70;80.80;;;21.53;58.54;101532.88;5037929;28;20210;-58
2022/09/11 01:17:38;;;;;;;12.97;11.77;;;18.70;80.90;;;21.55;58.79;101542.34;5050096;28;20190;-57
2022/09/11 01:20:29;;;;;;;14.10;12.90;;;18.80;80.90;;;21.54;58.71;101548.72;5042919;28;20228;-59
2022/09/11 01:23:17;;;;;;;11.93;10.87;;;18.80;80.60;;;21.55;58.67;101536.97;5031601;28;20210;-58
2022/09/11 01:26:17;;;;;;;11.73;10.43;;;18.80;80.60;;;21.55;58.37;101542.34;5030371;28;20659;-59
2022/09/11 01:28:56;;;;;;;12.80;11.53;;;18.90;80.60;;;21.58;58.24;101541.06;5029928;28;20202;-60
2022/09/11 01:31:35;;;;;;;13.67;11.77;;;18.90;80.60;;;21.61;58.42;101540.59;5035989;28;20268;-60
2022/09/11 01:34:13;;;;;;;12.77;11.60;;;18.90;80.30;;;21.63;58.60;101549.25;5049707;28;20306;-60
2022/09/11 01:36:52;;;;;;;12.57;11.50;;;19.00;80.00;;;21.65;58.23;101551.69;5047754;28;20255;-58
2022/09/11 01:39:28;;;;;;;11.60;10.50;;;19.00;79.90;;;21.67;58.41;101549.59;5051098;28;20202;-58
2022/09/11 01:42:02;;;;;;;11.50;10.50;;;19.10;79.80;;;21.70;57.92;101546.47;5053266;28;20229;-57
2022/09/11 01:44:36;;;;;;;12.43;11.23;;;19.10;80.40;;;21.71;58.24;101546.22;5053339;28;20174;-59
2022/09/11 01:47:08;;;;;;;14.97;13.53;;;19.10;79.50;;;21.72;57.63;101544.38;5053032;28;20174;-57
2022/09/11 01:49:43;;;;;;;15.00;13.13;;;19.10;78.60;;;21.67;57.25;101544.22;5032024;28;20636;-59
2022/09/11 01:52:16;;;;;;;12.23;10.83;;;19.10;78.40;;;21.58;57.72;101539.19;5033756;28;20285;-61
2022/09/11 01:54:51;;;;;;;12.87;11.67;;;19.00;78.70;;;21.53;57.98;101549.78;5033341;28;20206;-57
2022/09/11 01:57:28;;;;;;;13.30;11.77;;;18.90;79.20;;;21.49;58.30;101551.25;5033354;28;20209;-59
2022/09/11 02:00:01;;;;;;;12.50;11.40;;;18.90;80.00;;;21.47;57.88;101555.22;5033431;28;20190;-58
2022/09/11 02:02:35;;;;;;;12.00;11.00;;;18.90;79.60;;;21.47;58.25;101556.03;5032631;28;20218;-58
2022/09/11 02:05:14;;;;;;;13.67;12.33;;;18.80;79.70;;;21.49;58.16;101564.66;5044518;28;20194;-59
2022/09/11 02:07:51;;;;;;;13.20;11.90;;;18.80;80.00;;;21.52;58.23;101564.22;5046671;28;20585;-58
2022/09/11 02:10:28;;;;;;;12.13;11.03;;;18.90;80.10;;;21.54;58.51;101567.47;5052809;28;20186;-58
2022/09/11 02:13:05;;;;;;;13.70;12.33;;;18.90;81.00;;;21.58;58.46;101571.34;5052935;28;20210;-60
2022/09/11 02:15:43;;;;;;;11.97;10.87;;;18.90;80.10;;;21.61;58.38;101577.31;5053171;28;20185;-59
2022/09/11 02:18:18;;;;;;;14.70;13.40;;;18.90;80.10;;;21.64;57.88;101574.16;5052933;28;20308;-59
2022/09/11 02:20:46;;;;;;;12.73;11.60;;;19.00;79.60;;;21.63;58.33;101564.50;5050726;28;20181;-61
2022/09/11 02:23:14;;;;;;;14.70;13.30;;;18.90;79.40;;;21.63;57.83;101575.22;5051291;28;20661;-59
2022/09/11 02:25:42;;;;;;;14.87;13.43;;;19.00;79.30;;;21.63;57.93;101570.69;5032532;28;20198;-57
2022/09/11 02:28:10;;;;;;;14.80;13.27;;;19.00;79.50;;;21.66;57.82;101572.06;5033228;28;20249;-58
2022/09/11 02:30:41;;;;;;;12.73;11.63;;;19.00;79.70;;;21.69;58.21;101582.34;5031924;28;20249;-57
2022/09/11 02:33:28;;;;;;;13.30;11.90;;;19.00;79.70;;;21.69;57.94;101574.28;5032586;28;20210;-57
2022/09/11 02:36:16;;;;;;;14.30;12.90;;;19.10;79.60;;;21.75;57.53;101573.41;5032724;28;20559;-59
2022/09/11 02:39:01;;;;;;;14.60;12.27;;;19.10;79.10;;;21.77;57.89;101572.13;5044279;28;20220;-60
2022/09/11 02:41:43;;;;;;;15.90;14.40;;;19.20;78.90;;;21.78;57.50;101572.94;5050560;28;20218;-58
2022/09/11 02:44:23;;;;;;;14.30;12.80;;;19.20;78.30;;;21.77;57.32;101572.13;5052440;28;20186;-55
2022/09/11 02:47:14;;;;;;;15.17;13.57;;;19.20;78.30;;;21.75;57.06;101573.41;5052209;28;20653;-57
2022/09/11 02:49:59;;;;;;;13.27;12.13;;;19.20;78.40;;;21.77;57.07;101582.84;5051817;28;20186;-58
2022/09/11 02:52:46;;;;;;;14.03;12.70;;;19.10;78.40;;;21.77;57.23;101577.50;5052079;28;20202;-59
2022/09/11 02:55:24;;;;;;;16.87;15.20;;;19.10;78.60;;;21.81;57.00;101577.84;5050743;28;20190;-61
2022/09/11 02:58:01;;;;;;;14.03;12.77;;;19.10;78.40;;;21.80;57.09;101571.66;5050500;28;20202;-58
2022/09/11 03:00:28;;;;;;;14.70;13.07;;;19.10;78.60;;;21.85;57.25;101576.38;5051816;28;20264;-58
2022/09/11 03:02:58;;;;;;;15.40;13.90;;;19.10;79.00;;;21.90;57.42;101579.19;5052003;28;20218;-58
2022/09/11 03:05:27;;;;;;;17.20;15.47;;;19.10;79.20;;;21.95;57.43;101580.16;5052140;28;20225;-59
2022/09/11 03:07:54;;;;;;;16.37;14.80;;;19.10;79.30;;;22.01;56.82;101583.78;5046011;28;20195;-60
2022/09/11 03:10:22;;;;;;;16.67;15.07;;;19.10;79.20;;;22.04;56.66;101578.75;5031364;28;20232;-59
2022/09/11 03:12:49;;;;;;;17.80;16.00;;;19.20;79.40;;;22.07;56.79;101577.50;5032605;28;20570;-59
2022/09/11 03:15:16;;;;;;;16.70;15.00;;;19.20;79.30;;;22.08;56.64;101581.81;5030573;28;20305;-59
2022/09/11 03:17:44;;;;;;;17.27;15.47;;;19.10;79.20;;;22.11;57.42;101584.03;5031868;28;20660;-58
2022/09/11 03:20:13;;;;;;;16.60;14.90;;;19.20;79.30;;;22.13;57.29;101588.09;5031362;28;20636;-58
2022/09/11 03:22:40;;;;;;;16.93;15.33;;;19.20;80.00;;;22.16;56.75;101592.19;5044915;28;20244;-60
2022/09/11 03:25:09;;;;;;;18.77;16.90;;;19.30;79.40;;;22.21;56.98;101601.22;5051264;28;20186;-59
2022/09/11 03:27:40;;;;;;;17.03;15.23;;;19.30;79.20;;;22.25;56.71;101596.19;5051396;28;20190;-58
2022/09/11 03:30:09;;;;;;;18.57;16.67;;;19.30;79.20;;;22.27;57.11;101609.38;5033775;28;20249;-59
2022/09/11 03:32:37;;;;;;;20.60;18.50;;;19.30;79.10;;;22.29;56.78;101607.28;5031209;28;20541;-59
2022/09/11 03:35:05;;;;;;;21.93;19.70;;;19.40;79.20;;;22.30;56.54;101593.63;5031440;28;20233;-60
2022/09/11 03:37:33;;;;;;;19.03;17.03;;;19.40;79.20;;;22.31;56.58;101610.56;5032933;28;20289;-59
2022/09/11 03:40:01;;;;;;;20.37;17.50;;;19.40;79.20;;;22.28;56.79;101595.72;5031628;28;20199;-60
2022/09/11 03:42:29;;;;;;;17.53;15.73;;;19.40;79.20;;;22.30;56.90;101598.19;5030778;28;20222;-60
2022/09/11 03:44:56;;;;;;;19.33;17.40;;;19.40;79.30;;;22.32;56.87;101602.28;5031327;28;20190;-58
2022/09/11 03:47:23;;;;;;;20.57;16.37;;;19.40;79.30;;;22.35;57.01;101599.13;5031108;28;20191;-59
2022/09/11 03:49:50;;;;;;;20.37;16.47;;;19.50;79.30;;;22.40;56.65;101607.31;5031286;28;20252;-59
2022/09/11 03:52:18;;;;;;;19.40;17.50;;;19.50;79.30;;;22.46;57.10;101603.72;5030809;28;20214;-58
2022/09/11 03:54:47;;;;;;;22.20;18.70;;;19.60;79.20;;;22.51;56.80;101606.50;5032185;28;20249;-57
2022/09/11 03:57:14;;;;;;;25.30;21.07;;;19.60;79.00;;;22.54;56.67;101610.56;5031122;28;20199;-58
2022/09/11 03:59:41;;;;;;;24.57;20.43;;;19.60;78.80;;;22.52;56.57;101612.69;5031147;28;20725;-57
2022/09/11 04:02:08;;;;;;;19.53;17.43;;;19.60;78.70;;;22.50;56.69;101612.94;5030774;28;20305;-60
2022/09/11 04:04:36;;;;;;;26.20;20.43;;;19.60;78.80;;;22.51;56.73;101614.53;5031031;28;20204;-58
2022/09/11 04:07:03;;;;;;;20.10;17.83;;;19.60;78.70;;;22.49;56.83;101618.53;5030998;28;20195;-55
2022/09/11 04:09:31;;;;;;;22.50;18.93;;;19.60;78.80;;;22.49;56.50;101624.69;5031945;28;20194;-59
2022/09/11 04:11:59;;;;;;;27.67;22.90;;;19.60;78.70;;;22.45;56.45;101628.91;5030539;28;20206;-58
2022/09/11 04:14:27;;;;;;;26.80;22.80;;;19.60;78.60;;;22.39;56.55;101632.53;5030965;28;20191;-58
2022/09/11 04:16:54;;;;;;;21.23;18.03;;;19.60;78.70;;;22.32;56.63;101639.03;5031023;28;20187;-59
2022/09/11 04:19:22;;;;;;;24.40;21.77;;;19.60;78.90;;;22.27;56.96;101636.22;5032048;28;20682;-58
2022/09/11 04:21:50;;;;;;;28.27;23.93;;;19.50;79.00;;;22.21;56.79;101638.75;5030452;28;20214;-59
2022/09/11 04:24:17;;;;;;;25.07;21.50;;;19.40;79.00;;;22.14;56.99;101637.22;5030731;28;20194;-59
2022/09/11 04:26:45;;;;;;;27.37;22.90;;;19.40;79.10;;;22.09;57.32;101645.94;5040759;28;20194;-57
2022/09/11 04:29:16;;;;;;;25.93;21.77;;;19.30;79.10;;;22.03;57.00;101648.72;5050410;28;20247;-59
2022/09/11 04:31:44;;;;;;;27.37;21.70;;;19.20;79.10;;;21.97;57.26;101641.56;5050366;28;20186;-57
2022/09/11 04:34:11;;;;;;;26.33;22.37;;;19.10;79.50;;;21.91;57.19;101632.59;5050750;28;20372;-58
2022/09/11 04:36:38;;;;;;;27.67;21.70;;;19.10;79.60;;;21.86;57.12;101642.34;5049044;28;20674;-58
2022/09/11 04:39:08;;;;;;;29.03;23.57;;;19.10;79.80;;;21.80;57.90;101645.91;5050718;28;20198;-60
2022/09/11 04:41:35;;;;;;;27.73;23.53;;;19.00;80.00;;;21.73;57.58;101645.19;5050231;28;20259;-57
2022/09/11 04:44:02;;;;;;;25.93;21.57;;;18.90;80.20;;;21.68;57.92;101639.69;5049020;28;20267;-56
2022/09/11 04:46:33;;;;;;;26.47;21.97;;;18.80;80.80;;;21.64;58.17;101639.31;5049652;28;20201;-57
2022/09/11 04:49:03;;;;;;;23.97;19.67;;;18.80;81.00;;;21.61;58.40;101638.94;5050591;28;20269;-58
2022/09/11 04:51:34;;;;;;;27.97;21.50;;;18.80;81.30;;;21.59;58.13;101648.00;5050435;28;20201;-57
2022/09/11 04:54:03;;;;;;;31.70;21.53;;;18.80;81.40;;;21.57;58.75;101646.59;5049027;28;20248;-57
2022/09/11 04:56:34;;;;;;;23.93;18.23;;;18.70;81.40;;;21.53;58.77;101646.25;5050425;28;20190;-56
2022/09/11 04:59:04;;;;;;;25.93;20.87;;;18.70;81.60;;;21.50;58.64;101641.31;5040739;28;20635;-59
2022/09/11 05:01:34;;;;;;;27.60;21.43;;;18.60;81.60;;;21.46;58.81;101632.09;5029574;28;20569;-58
2022/09/11 05:04:01;;;;;;;24.00;19.80;;;18.60;82.20;;;21.46;59.57;101639.31;5030228;28;20667;-57
2022/09/11 05:06:30;;;;;;;24.57;18.77;;;18.60;82.50;;;21.45;59.06;101641.19;5030505;28;20241;-58
2022/09/11 05:09:03;;;;;;;23.77;18.87;;;18.60;82.30;;;21.42;58.83;101649.66;5030588;28;20608;-58
2022/09/11 05:11:31;;;;;;;23.47;18.80;;;18.60;82.20;;;21.43;59.03;101648.63;5030131;28;20210;-59
2022/09/11 05:13:59;;;;;;;20.83;15.83;;;18.60;82.30;;;21.43;58.82;101653.16;5034339;28;20201;-57
2022/09/11 05:16:28;;;;;;;21.90;16.37;;;18.60;82.20;;;21.40;59.24;101656.28;5053873;28;20197;-57
2022/09/11 05:18:58;;;;;;;18.90;15.47;;;18.50;82.20;;;21.38;58.75;101653.81;5054131;28;20590;-59
2022/09/11 05:21:27;;;;;;;23.17;15.10;;;18.50;82.20;;;21.37;59.21;101656.75;5053555;28;20542;-57
2022/09/11 05:23:57;;;;;;;18.30;13.50;;;18.50;82.20;;;21.35;58.93;101659.63;5053949;28;20264;-57
2022/09/11 05:26:29;;;;;;;16.10;13.20;;;18.50;82.30;;;21.32;59.26;101665.41;5052366;28;20236;-58
2022/09/11 05:28:59;;;;;;;19.20;14.27;;;18.50;82.20;;;21.30;58.71;101675.53;5054144;28;20614;-58
2022/09/11 05:31:33;;;;;;;26.13;17.63;;;18.50;82.20;;;21.30;59.51;101672.84;5041811;28;20260;-59
2022/09/11 05:34:02;;;;;;;24.47;16.90;;;18.40;82.40;;;21.28;59.51;101674.94;5033996;28;20274;-58
2022/09/11 05:36:30;;;;;;;23.23;15.87;;;18.40;82.50;;;21.24;59.29;101684.47;5033857;28;20240;-56
2022/09/11 05:38:58;;;;;;;25.83;18.33;;;18.30;82.60;;;21.25;59.91;101688.78;5032589;28;20268;-57
2022/09/11 05:41:26;;;;;;;26.40;18.43;;;18.30;83.20;;;21.27;60.05;101694.75;5033415;28;20186;-60
2022/09/11 05:43:53;;;;;;;20.43;15.73;;;18.30;83.20;;;21.29;59.86;101699.88;5034635;28;20709;-57
2022/09/11 05:46:21;;;;;;;18.60;14.60;;;18.30;83.80;;;21.33;60.30;101701.88;5035962;28;20195;-58
2022/09/11 05:48:48;;;;;;;18.53;15.20;;;18.40;84.10;;;21.42;60.55;101707.75;5053698;28;20612;-60
2022/09/11 05:51:20;;;;;;;16.93;14.10;;;18.50;84.30;;;21.49;60.36;101703.97;5053142;28;20255;-58
2022/09/11 05:53:51;;;;;;;17.23;13.70;;;18.50;84.20;;;21.58;60.03;101708.00;5053273;28;20217;-59
2022/09/11 05:56:21;;;;;;;16.63;14.83;;;18.60;84.00;;;21.68;59.99;101712.03;5053455;28;20198;-59
2022/09/11 05:58:50;;;;;;;18.30;14.43;;;18.70;83.70;;;21.76;59.74;101709.88;5068317;28;20186;-58
2022/09/11 06:01:20;;;;;;;15.90;13.90;;;18.80;83.50;;;21.83;59.87;101715.97;5050999;28;20208;-58
2022/09/11 06:03:48;;;;;;;15.20;13.60;;;18.90;83.30;;;21.90;59.64;101711.38;5051441;28;20288;-60
2022/09/11 06:06:20;;;;;;;16.60;14.23;;;19.00;83.10;;;21.97;59.58;101711.28;5053224;28;20190;-59
2022/09/11 06:08:48;;;;;;;14.33;12.83;;;19.10;82.80;;;22.04;59.08;101717.38;5053173;28;20203;-58
2022/09/11 06:11:18;;;;;;;16.13;14.37;;;19.10;83.20;;;22.11;58.85;101718.94;5052727;28;20190;-59
2022/09/11 06:13:47;;;;;;;16.40;13.63;;;19.20;82.20;;;22.17;58.58;101723.44;5053248;28;20568;-59
2022/09/11 06:16:18;;;;;;;17.10;14.30;;;19.30;82.00;;;22.24;58.35;101728.69;5052988;28;20198;-60
2022/09/11 06:18:49;;;;;;;15.27;13.67;;;19.30;81.60;;;22.29;58.63;101726.16;5049643;28;20319;-60
2022/09/11 06:21:20;;;;;;;17.50;15.70;;;19.40;81.60;;;22.36;57.98;101734.94;5052649;28;20204;-60
2022/09/11 06:23:50;;;;;;;16.80;15.00;;;19.40;81.90;;;22.41;57.78;101735.06;5052958;28;20209;-60
2022/09/11 06:26:21;;;;;;;19.97;16.17;;;19.40;81.00;;;22.44;57.25;101741.84;5053472;28;20189;-57
2022/09/11 06:28:49;;;;;;;15.90;14.30;;;19.40;80.70;;;22.40;57.95;101738.78;5053876;28;20266;-57
2022/09/11 06:31:19;;;;;;;18.40;16.10;;;19.40;80.90;;;22.41;57.78;101745.81;5053191;28;20194;-58
2022/09/11 06:33:48;;;;;;;16.37;14.23;;;19.40;80.80;;;22.40;57.67;101749.53;5053436;28;20214;-58
2022/09/11 06:36:19;;;;;;;18.10;14.93;;;19.50;80.90;;;22.41;57.29;101751.16;5049212;28;20224;-60
2022/09/11 06:38:52;;;;;;;20.10;16.93;;;19.50;80.70;;;22.41;57.37;101753.03;5051995;28;20287;-57
2022/09/11 06:41:20;;;;;;;16.70;15.10;;;19.50;80.50;;;22.38;57.07;101756.97;5052108;28;20254;-57
2022/09/11 06:43:48;;;;;;;16.17;14.57;;;19.50;80.10;;;22.31;57.08;101758.09;5052325;28;20272;-57
2022/09/11 06:46:18;;;;;;;16.83;15.20;;;19.40;79.70;;;22.22;56.89;101762.97;5052207;28;20194;-59
2022/09/11 06:48:48;;;;;;;17.37;15.77;;;19.30;79.30;;;22.09;57.17;101760.44;5053028;28;20201;-58
2022/09/11 06:51:19;;;;;;;14.63;13.20;;;19.20;79.30;;;21.98;57.15;101763.88;5050603;28;20247;-59
2022/09/11 06:53:47;;;;;;;15.87;14.37;;;19.20;79.50;;;21.89;57.39;101767.94;5051389;28;20213;-58
2022/09/11 06:56:17;;;;;;;19.17;17.20;;;19.00;79.70;;;21.80;57.22;101770.03;5052076;28;20190;-60
2022/09/11 06:58:45;;;;;;;16.07;14.47;;;19.00;80.00;;;21.77;57.72;101772.34;5052222;28;20197;-61
2022/09/11 07:01:15;;;;;;;14.00;12.57;;;18.90;80.50;;;21.76;57.80;101770.69;5050902;28;20612;-57
2022/09/11 07:03:44;;;;;;;14.77;13.27;;;18.90;81.00;;;21.80;58.33;101775.41;5051397;28;20218;-58
2022/09/11 07:06:11;;;;;;;14.97;13.50;;;18.90;81.40;;;21.87;58.27;101776.16;5052018;28;20240;-58
2022/09/11 07:08:41;;;;;;;14.20;12.97;;;18.90;81.20;;;21.93;58.01;101774.47;5048459;28;20572;-59
2022/09/11 07:11:11;;;;;;;14.27;13.07;;;19.00;81.10;;;21.96;57.86;101774.03;5051408;28;20752;-58
2022/09/11 07:13:39;;;;;;;13.77;12.40;;;19.00;80.80;;;21.99;57.70;101770.88;5051548;28;20218;-58
2022/09/11 07:16:10;;;;;;;13.17;11.97;;;19.00;80.70;;;22.02;57.37;101778.47;5039938;28;20571;-58
2022/09/11 07:18:40;;;;;;;11.97;10.87;;;19.00;80.30;;;22.04;57.28;101773.72;5031471;28;20194;-57
2022/09/11 07:21:11;;;;;;;12.53;11.33;;;19.10;80.30;;;22.05;56.96;101778.03;5031203;28;20834;-57
2022/09/11 07:23:41;;;;;;;13.03;11.70;;;19.00;80.20;;;22.07;57.09;101782.13;5032459;28;20288;-58
2022/09/11 07:26:12;;;;;;;11.47;10.37;;;19.00;80.10;;;22.07;57.57;101781.31;5032753;28;20194;-57
2022/09/11 07:28:39;;;;;;;11.73;10.53;;;19.10;80.20;;;22.09;57.43;101785.41;5031733;28;20750;-59
2022/09/11 07:31:09;;;;;;;12.00;10.83;;;19.10;80.50;;;22.13;57.57;101781.22;5031212;28;20264;-58
2022/09/11 07:33:37;;;;;;;11.80;10.60;;;19.10;80.50;;;22.18;57.44;101776.00;5031068;28;20604;-59
2022/09/11 07:36:10;;;;;;;12.37;10.90;;;19.20;80.50;;;22.25;57.20;101778.59;5031500;28;20190;-59
2022/09/11 07:38:42;;;;;;;12.40;11.20;;;19.30;80.30;;;22.32;57.39;101786.59;5031514;28;20268;-58
2022/09/11 07:41:10;;;;;;;11.03;10.03;;;19.30;80.10;;;22.40;57.23;101781.72;5032064;28;20345;-59
2022/09/11 07:43:40;;;;;;;10.67;9.67;;;19.40;80.10;;;22.48;56.60;101784.09;5032194;28;20551;-59
2022/09/11 07:46:09;;;;;;;12.17;10.90;;;19.50;79.90;;;22.56;56.48;101781.06;5030530;28;20198;-58
2022/09/11 07:48:38;;;;;;;13.13;11.63;;;19.50;79.50;;;22.62;56.18;101790.94;5045139;28;20206;-57
2022/09/11 07:51:09;;;;;;;9.73;8.83;;;19.60;79.30;;;22.67;56.46;101791.09;5049991;28;20210;-58
2022/09/11 07:53:40;;;;;;;11.10;10.10;;;19.60;79.20;;;22.73;56.26;101795.53;5049360;28;20217;-57
2022/09/11 07:56:10;;;;;;;13.50;12.20;;;19.70;78.90;;;22.79;55.94;101796.50;5048773;28;20223;-58
2022/09/11 07:58:39;;;;;;;13.03;11.73;;;19.80;78.50;;;22.80;55.56;101793.56;5042525;28;20561;-56
2022/09/11 08:01:12;;;;;;;13.47;12.13;;;19.80;78.20;;;22.79;55.53;101797.31;5033707;28;20210;-57
2022/09/11 08:03:41;;;;;;;12.40;11.20;;;19.80;78.00;;;22.78;55.37;101792.97;5030191;28;20237;-57
2022/09/11 08:06:13;;;;;;;10.67;9.60;;;19.80;78.00;;;22.83;55.67;101792.28;5030610;28;20211;-57
2022/09/11 08:08:53;;;;;;;10.53;9.53;;;19.80;78.30;;;22.89;55.51;101797.56;5030331;28;20213;-59
2022/09/11 08:11:21;;;;;;;10.43;9.43;;;19.80;78.40;;;23.02;55.35;101796.53;5030284;28;20252;-58
2022/09/11 08:13:50;;;;;;;10.40;9.40;;;19.90;78.30;;;23.11;55.09;101794.34;5030612;28;20722;-59
2022/09/11 08:16:19;;;;;;;8.97;8.10;;;20.00;77.90;;;23.20;54.63;101795.66;5030667;28;20249;-57
2022/09/11 08:18:47;;;;;;;9.33;8.50;;;20.10;77.60;;;23.28;54.55;101801.50;5030446;28;20202;-57
2022/09/11 08:21:15;;;;;;;10.67;9.67;;;20.10;77.20;;;23.36;54.36;101803.06;5030143;28;20190;-57
2022/09/11 08:23:44;;;;;;;9.67;8.67;;;20.20;76.80;;;23.42;54.19;101810.19;5030314;28;20218;-58
2022/09/11 08:26:15;;;;;;;8.97;8.07;;;20.30;76.80;;;23.49;53.75;101813.56;5030298;28;20538;-58
2022/09/11 08:28:44;;;;;;;9.67;8.77;;;20.30;76.30;;;23.58;53.56;101806.00;5030417;28;20249;-56
2022/09/11 08:31:12;;;;;;;9.73;8.83;;;20.40;76.10;;;23.96;53.53;101815.19;5030184;28;20290;-56
2022/09/11 08:33:40;;;;;;;9.87;8.97;;;20.50;76.70;;;25.10;52.55;101805.31;5029990;28;20214;-59
2022/09/11 08:36:09;;;;;;;8.77;7.80;;;20.80;77.00;;;26.56;49.29;101810.06;5030303;28;20277;-59
2022/09/11 08:38:37;;;;;;;8.77;8.07;;;21.40;75.90;;;27.97;45.78;101814.78;5030202;28;20260;-58
2022/09/11 08:41:20;;;;;;;8.00;7.30;;;22.10;73.50;;;29.35;42.51;101812.94;5029727;28;20199;-57
2022/09/11 08:43:52;;;;;;;7.47;6.87;;;23.00;70.70;;;30.74;40.30;101825.50;5029255;28;20272;-57
2022/09/11 08:46:24;;;;;;;6.83;6.23;;;23.90;67.50;;;31.90;37.91;101816.28;5030659;28;20236;-57
2022/09/11 08:49:01;;;;;;;4.97;4.57;;;24.90;65.00;;;32.88;36.02;101821.00;5032836;28;20233;-56
2022/09/11 08:51:30;;;;;;;5.03;4.63;;;25.80;60.50;;;33.75;33.22;101821.16;5033994;28;20186;-58
2022/09/11 08:54:00;;;;;;;5.10;4.70;;;26.60;57.70;;;34.37;31.34;101814.94;5034146;28;20274;-55
2022/09/11 08:56:33;;;;;;;5.70;5.13;;;27.30;55.30;;;34.17;30.65;101826.31;5033919;28;20543;-56
2022/09/11 08:59:20;;;;;;;5.53;5.07;;;27.70;51.80;;;33.38;32.50;101825.63;5033797;28;20194;-57
2022/09/11 09:02:06;;;;;;;5.33;4.30;;;27.90;51.80;;;32.58;32.83;101827.75;5033484;28;20287;-56
2022/09/11 09:05:04;;;;;;;5.00;4.60;;;27.80;50.80;;;31.62;33.76;101824.53;5032783;28;20211;-56
2022/09/11 09:07:47;;;;;;;4.43;4.13;;;27.60;50.70;;;30.75;35.34;101829.84;5033897;28;20195;-56
2022/09/11 09:10:36;;;;;;;5.20;4.80;;;27.10;51.10;;;30.00;36.44;101830.22;5034175;28;20236;-57
2022/09/11 09:13:25;;;;;;;5.70;5.30;;;26.60;52.10;;;29.33;37.16;101825.97;5033689;28;20294;-58
2022/09/11 09:16:08;;;;;;;5.70;5.20;;;26.10;52.90;;;28.71;38.72;101838.91;5033712;28;20182;-60
2022/09/11 09:18:43;;;;;;;4.93;4.53;;;25.70;54.00;;;28.22;39.28;101835.75;5033895;28;20248;-58
2022/09/11 09:21:19;;;;;;;6.30;5.70;;;25.20;55.10;;;27.81;40.12;101834.72;5033573;28;20174;-56
2022/09/11 09:24:02;;;;;;;6.60;6.00;;;24.90;56.20;;;27.41;40.77;101832.53;5033762;28;20558;-58
2022/09/11 09:26:38;;;;;;;6.03;5.47;;;24.40;56.90;;;27.15;41.48;101829.84;5033854;28;20240;-57
2022/09/11 09:29:18;;;;;;;5.40;5.00;;;24.10;57.70;;;26.89;42.00;101830.72;5033792;28;20179;-57
2022/09/11 09:31:50;;;;;;;5.00;4.60;;;23.90;58.40;;;26.65;42.59;101836.38;5033363;28;20207;-57
2022/09/11 09:34:21;;;;;;;7.23;5.87;;;23.60;59.00;;;26.42;43.22;101833.97;5033613;28;20171;-55
2022/09/11 09:36:58;;;;;;;6.00;5.60;;;23.40;59.90;;;26.25;44.02;101830.53;5033661;28;20250;-58
2022/09/11 09:39:25;;;;;;;6.60;6.00;;;23.20;60.80;;;26.13;43.97;101843.31;5033228;28;20718;-61
2022/09/11 09:42:09;;;;;;;5.60;4.83;;;23.10;61.30;;;25.96;44.00;101839.84;5032810;28;20336;-58
2022/09/11 09:44:55;;;;;;;6.77;6.17;;;22.90;61.90;;;26.01;45.10;101838.00;5033523;28;20264;-59
2022/09/11 09:47:23;;;;;;;5.47;4.97;;;22.80;62.80;;;27.34;43.82;101839.22;5033536;28;20171;-59
2022/09/11 09:49:51;;;;;;;6.17;5.73;;;23.00;64.80;;;29.21;40.40;101832.75;5033369;28;20330;-58
2022/09/11 09:52:23;;;;;;;4.50;4.20;;;23.50;64.90;;;30.54;38.05;101841.94;5032987;28;20359;-58
2022/09/11 09:54:56;;;;;;;5.80;5.30;;;24.30;63.90;;;31.41;36.60;101835.59;5033281;28;20171;-57
2022/09/11 09:57:27;;;;;;;4.93;4.57;;;25.00;61.60;;;31.82;34.94;101843.38;5032998;28;20596;-59
2022/09/11 10:00:05;;;;;;;3.93;3.63;;;25.60;57.60;;;31.42;34.93;101839.94;5031821;28;20237;-57
2022/09/11 10:02:39;;;;;;;4.10;3.80;;;26.00;56.00;;;30.83;35.26;101845.56;5033184;28;20749;-58
2022/09/11 10:05:25;;;;;;;4.13;3.73;;;26.20;55.00;;;31.20;36.05;101846.94;5033165;28;20210;-59
2022/09/11 10:07:56;;;;;;;3.70;3.40;;;26.30;55.10;;;32.54;33.61;101845.00;5033146;28;20202;-56
2022/09/11 10:10:30;;;;;;;4.03;3.73;;;26.60;54.60;;;34.08;31.01;101854.69;5032916;28;20183;-57
2022/09/11 10:13:02;;;;;;;3.97;3.00;;;27.20;53.50;;;34.96;29.33;101843.97;5033143;28;20626;-58
2022/09/11 10:15:49;;;;;;;3.13;2.92;;;27.80;50.50;;;35.65;27.38;101839.75;5032980;28;20191;-60
2022/09/11 10:18:36;;;;;;;3.40;3.10;;;28.40;48.20;;;36.73;26.60;101848.09;5033081;28;20491;-59
2022/09/11 10:21:28;;;;;;;3.72;3.20;;;29.00;47.50;;;37.44;25.56;101845.78;5032119;28;20183;-61
2022/09/11 10:23:58;;;;;;;3.30;3.10;;;29.60;45.40;;;36.94;25.51;101843.59;5032222;28;20290;-58